X  FermerMétéo aéronautique     LFRZ Saint-Nazaire-Montoir

Température

7°C Température

3°C Point de rosée

76% Humidité



Vent

16 KM/H

10 MPH

 4 M/S

 9 KTS



290°
Ouest Nord
Ouest
Conditions actuelles

Data Offline Data Offline
Pression : 1010.92 hPa - 29.85 in
Visibilité : 10 km - 6.2 mi
Aéroport
Code OACI : LFRZ

Aéroport : Saint-Nazaire-Montoir (14 km)

Metar :
LFRZ 111930Z AUTO 29009KT 9999 ///TCU 07/03 Q1011 TEMPO 30015G30KT 4000 SHRA SCT020CB

Publication : 11-12-2019 20:30